Wilpride — LARM7 — position and weather

sailwx.info

Track history (hours):
 
Tides and Currents Weather Stations Pressure Air Temp Water Temp Dewpoint Dewpoint Depression Visibility Wind Speed Wind Dir Waves Ship Positions

Wilpride

Last reported at 2018-Jul-26 20:11 UTC. Time now 2018-Aug-16 07:59 UTC.
Position N 20°21' E 070°47'.
Warning: this ship's position is 20 days out of date.

Length 290 m; draft 9.6 m.

Type: Ship (hazmat cat D). MMSI: 258703000.

Date/timePositionNaut miles runAvg speedWind from/ knotsBaromVisibWave heightAir tempDewpointWater temp
2018-Jul-26 20:11N 20°21' E 070°47'314.5
2018-Jul-26 20:00N 20°20' E 070°50'1414.2
2018-Jul-26 18:59N 20°18' E 071°05'8412.0
2018-Jul-26 11:58N 20°42' E 072°31'714.8
2018-Jul-26 11:30N 20°48' E 072°32'713.9
2018-Jul-26 11:00N 20°55' E 072°34'611.8
2018-Jul-26 10:30N 21°01' E 072°34'3 5.8
2018-Jul-26 10:00N 21°04' E 072°34'3 5.9
2018-Jul-26 09:30N 21°05' E 072°37'0 0.5
2018-Jul-26 09:00N 21°06' E 072°37'0 0.0
2018-Jul-26 08:30N 21°06' E 072°37'0 0.0
2018-Jul-26 08:00N 21°06' E 072°37'0 0.0
2018-Jul-26 07:30N 21°06' E 072°37'0 0.0
2018-Jul-26 07:00N 21°06' E 072°37'0 0.0
2018-Jul-26 06:30N 21°06' E 072°37'0 0.0
2018-Jul-26 06:00N 21°06' E 072°37'0 0.0
2018-Jul-26 05:30N 21°06' E 072°37'0 0.0
2018-Jul-26 05:00N 21°06' E 072°37'0 0.0
2018-Jul-26 04:30N 21°06' E 072°37'0 0.0
2018-Jul-26 04:00N 21°06' E 072°37'0 0.0
2018-Jul-26 03:30N 21°06' E 072°37'0 0.0
2018-Jul-26 02:54N 21°06' E 072°37'0 0.0
2018-Jul-26 02:30N 21°06' E 072°37'0 0.0
2018-Jul-26 02:00N 21°06' E 072°37'0 0.0
2018-Jul-26 01:30N 21°06' E 072°37'0 0.0
2018-Jul-26 01:00N 21°06' E 072°37'0 0.0
2018-Jul-26 00:30N 21°06' E 072°37'0 0.0
2018-Jul-26 00:00N 21°06' E 072°37'0 0.0
2018-Jul-25 23:30N 21°06' E 072°37'0 0.0
2018-Jul-25 23:00N 21°06' E 072°37'0 0.0
2018-Jul-25 22:30N 21°06' E 072°37'0 0.0
2018-Jul-25 22:00N 21°06' E 072°37'0 0.0
2018-Jul-25 21:30N 21°06' E 072°37'0 0.0
2018-Jul-25 20:54N 21°06' E 072°37'0 0.0
2018-Jul-25 20:30N 21°06' E 072°37'0 0.0
2018-Jul-25 20:00N 21°06' E 072°37'0 0.0
2018-Jul-25 19:30N 21°06' E 072°37'0 0.0
2018-Jul-25 19:00N 21°06' E 072°37'0 0.0
2018-Jul-25 18:24N 21°06' E 072°37'0 0.0
2018-Jul-25 18:00N 21°06' E 072°37'0 0.0
2018-Jul-25 17:30N 21°06' E 072°37'0 0.0
2018-Jul-25 16:48N 21°06' E 072°37'0 0.0
2018-Jul-25 16:30N 21°06' E 072°37'0 0.0
2018-Jul-25 16:00N 21°06' E 072°37'0 0.0
2018-Jul-25 15:30N 21°06' E 072°37'0 0.0
2018-Jul-25 15:00N 21°06' E 072°37'0 0.0
2018-Jul-25 14:30N 21°06' E 072°37'0 0.0
2018-Jul-25 14:00N 21°06' E 072°37'0 0.0
2018-Jul-25 13:30N 21°06' E 072°37'0 0.0
2018-Jul-25 13:00N 21°06' E 072°37'0 0.0
2018-Jul-25 12:30N 21°06' E 072°37'0 0.0
2018-Jul-25 12:00N 21°06' E 072°37'0 0.0
2018-Jul-25 11:24N 21°06' E 072°37'0 0.0
2018-Jul-25 10:54N 21°06' E 072°37'0 0.0
2018-Jul-25 10:30N 21°06' E 072°37'0 0.0
2018-Jul-25 10:00N 21°06' E 072°37'0 0.0
2018-Jul-25 09:30N 21°06' E 072°37'0 0.0
2018-Jul-25 09:00N 21°06' E 072°37'0 0.0
2018-Jul-25 08:30N 21°06' E 072°37'0 0.0
2018-Jul-25 08:00N 21°06' E 072°37'0 0.0
2018-Jul-25 07:30N 21°06' E 072°37'0 0.0
2018-Jul-25 06:12N 21°06' E 072°37'0 0.0
2018-Jul-25 06:00N 21°06' E 072°37'0 0.0
2018-Jul-25 05:24N 21°06' E 072°37'0 0.0
2018-Jul-25 05:00N 21°06' E 072°37'0 0.0
2018-Jul-25 04:30N 21°06' E 072°37'0 0.0
2018-Jul-25 04:00N 21°06' E 072°37'0 0.0
2018-Jul-25 03:30N 21°06' E 072°37'0 0.0
2018-Jul-25 03:00N 21°06' E 072°37'0 0.0
2018-Jul-25 02:30N 21°06' E 072°37'0 0.0
2018-Jul-25 02:00N 21°06' E 072°37'0 0.6
2018-Jul-25 01:30N 21°05' E 072°37'2 3.2
2018-Jul-25 01:00N 21°05' E 072°35'3 6.8
2018-Jul-25 00:30N 21°02' E 072°34'2 4.4
2018-Jul-25 00:00N 20°59' E 072°34'3 6.6
2018-Jul-24 23:30N 20°56' E 072°34'4 7.3
2018-Jul-24 23:00N 20°52' E 072°33'4 7.4
2018-Jul-24 22:30N 20°49' E 072°32'4 7.2
2018-Jul-24 22:00N 20°45' E 072°32'4 7.5
2018-Jul-24 21:30N 20°42' E 072°31'611.0
2018-Jul-24 21:00N 20°36' E 072°30'  
Track history (hours):
 
Tides and Currents Weather Stations Pressure Air Temp Water Temp Dewpoint Dewpoint Depression Visibility Wind Speed Wind Dir Waves Ship Positions

Wilpride

Last reported at 2018-Jul-26 20:11 UTC. Time now 2018-Aug-16 07:59 UTC.
Position N 20°21' E 070°47'.
Warning: this ship's position is 20 days out of date.

Length 290 m; draft 9.6 m.

Type: Ship (hazmat cat D). MMSI: 258703000.

Date/timePositionNaut miles runAvg speedWind from/ knotsBaromVisibWave heightAir tempDewpointWater temp
2018-Jul-26 20:11N 20°21' E 070°47'314.5
2018-Jul-26 20:00N 20°20' E 070°50'1414.2
2018-Jul-26 18:59N 20°18' E 071°05'8412.0
2018-Jul-26 11:58N 20°42' E 072°31'714.8
2018-Jul-26 11:30N 20°48' E 072°32'713.9
2018-Jul-26 11:00N 20°55' E 072°34'611.8
2018-Jul-26 10:30N 21°01' E 072°34'3 5.8
2018-Jul-26 10:00N 21°04' E 072°34'3 5.9
2018-Jul-26 09:30N 21°05' E 072°37'0 0.5
2018-Jul-26 09:00N 21°06' E 072°37'0 0.0
2018-Jul-26 08:30N 21°06' E 072°37'0 0.0
2018-Jul-26 08:00N 21°06' E 072°37'0 0.0
2018-Jul-26 07:30N 21°06' E 072°37'0 0.0
2018-Jul-26 07:00N 21°06' E 072°37'0 0.0
2018-Jul-26 06:30N 21°06' E 072°37'0 0.0
2018-Jul-26 06:00N 21°06' E 072°37'0 0.0
2018-Jul-26 05:30N 21°06' E 072°37'0 0.0
2018-Jul-26 05:00N 21°06' E 072°37'0 0.0
2018-Jul-26 04:30N 21°06' E 072°37'0 0.0
2018-Jul-26 04:00N 21°06' E 072°37'0 0.0
2018-Jul-26 03:30N 21°06' E 072°37'0 0.0
2018-Jul-26 02:54N 21°06' E 072°37'0 0.0
2018-Jul-26 02:30N 21°06' E 072°37'0 0.0
2018-Jul-26 02:00N 21°06' E 072°37'0 0.0
2018-Jul-26 01:30N 21°06' E 072°37'0 0.0
2018-Jul-26 01:00N 21°06' E 072°37'0 0.0
2018-Jul-26 00:30N 21°06' E 072°37'0 0.0
2018-Jul-26 00:00N 21°06' E 072°37'0 0.0
2018-Jul-25 23:30N 21°06' E 072°37'0 0.0
2018-Jul-25 23:00N 21°06' E 072°37'0 0.0
2018-Jul-25 22:30N 21°06' E 072°37'0 0.0
2018-Jul-25 22:00N 21°06' E 072°37'0 0.0
2018-Jul-25 21:30N 21°06' E 072°37'0 0.0
2018-Jul-25 20:54N 21°06' E 072°37'0 0.0
2018-Jul-25 20:30N 21°06' E 072°37'0 0.0
2018-Jul-25 20:00N 21°06' E 072°37'0 0.0
2018-Jul-25 19:30N 21°06' E 072°37'0 0.0
2018-Jul-25 19:00N 21°06' E 072°37'0 0.0
2018-Jul-25 18:24N 21°06' E 072°37'0 0.0
2018-Jul-25 18:00N 21°06' E 072°37'0 0.0
2018-Jul-25 17:30N 21°06' E 072°37'0 0.0
2018-Jul-25 16:48N 21°06' E 072°37'0 0.0
2018-Jul-25 16:30N 21°06' E 072°37'0 0.0
2018-Jul-25 16:00N 21°06' E 072°37'0 0.0
2018-Jul-25 15:30N 21°06' E 072°37'0 0.0
2018-Jul-25 15:00N 21°06' E 072°37'0 0.0
2018-Jul-25 14:30N 21°06' E 072°37'0 0.0
2018-Jul-25 14:00N 21°06' E 072°37'0 0.0
2018-Jul-25 13:30N 21°06' E 072°37'0 0.0
2018-Jul-25 13:00N 21°06' E 072°37'0 0.0
2018-Jul-25 12:30N 21°06' E 072°37'0 0.0
2018-Jul-25 12:00N 21°06' E 072°37'0 0.0
2018-Jul-25 11:24N 21°06' E 072°37'0 0.0
2018-Jul-25 10:54N 21°06' E 072°37'0 0.0
2018-Jul-25 10:30N 21°06' E 072°37'0 0.0
2018-Jul-25 10:00N 21°06' E 072°37'0 0.0
2018-Jul-25 09:30N 21°06' E 072°37'0 0.0
2018-Jul-25 09:00N 21°06' E 072°37'0 0.0
2018-Jul-25 08:30N 21°06' E 072°37'0 0.0
2018-Jul-25 08:00N 21°06' E 072°37'0 0.0
2018-Jul-25 07:30N 21°06' E 072°37'0 0.0
2018-Jul-25 06:12N 21°06' E 072°37'0 0.0
2018-Jul-25 06:00N 21°06' E 072°37'0 0.0
2018-Jul-25 05:24N 21°06' E 072°37'0 0.0
2018-Jul-25 05:00N 21°06' E 072°37'0 0.0
2018-Jul-25 04:30N 21°06' E 072°37'0 0.0
2018-Jul-25 04:00N 21°06' E 072°37'0 0.0
2018-Jul-25 03:30N 21°06' E 072°37'0 0.0
2018-Jul-25 03:00N 21°06' E 072°37'0 0.0
2018-Jul-25 02:30N 21°06' E 072°37'0 0.0
2018-Jul-25 02:00N 21°06' E 072°37'0 0.6
2018-Jul-25 01:30N 21°05' E 072°37'2 3.2
2018-Jul-25 01:00N 21°05' E 072°35'3 6.8
2018-Jul-25 00:30N 21°02' E 072°34'2 4.4
2018-Jul-25 00:00N 20°59' E 072°34'3 6.6
2018-Jul-24 23:30N 20°56' E 072°34'4 7.3
2018-Jul-24 23:00N 20°52' E 072°33'4 7.4
2018-Jul-24 22:30N 20°49' E 072°32'4 7.2
2018-Jul-24 22:00N 20°45' E 072°32'4 7.5
2018-Jul-24 21:30N 20°42' E 072°31'611.0
2018-Jul-24 21:00N 20°36' E 072°30'  

Dump ship's entire track history